sensor_id;sensor_type;location;lat;lon;timestamp;pressure;altitude;pressure_sealevel;temperature;humidity
61474;BME280;53694;49.784;30.150;2022-08-11T00:00:42;99948.77;;;19.89;69.12
61474;BME280;53694;49.784;30.150;2022-08-11T00:01:51;99923.95;;;19.68;69.60
61474;BME280;53694;49.784;30.150;2022-08-11T00:02:53;99931.30;;;19.47;71.12
61474;BME280;53694;49.784;30.150;2022-08-11T00:04:01;99921.57;;;19.29;72.04
61474;BME280;53694;49.784;30.150;2022-08-11T00:05:11;99913.77;;;19.13;72.82
61474;BME280;53694;49.784;30.150;2022-08-11T00:06:10;99907.47;;;19.05;73.42
61474;BME280;53694;49.784;30.150;2022-08-11T00:07:13;99892.28;;;19.13;73.66
61474;BME280;53694;49.784;30.150;2022-08-11T00:08:29;99892.09;;;19.31;73.22
61474;BME280;53694;49.784;30.150;2022-08-11T00:09:37;99884.67;;;19.55;72.37
61474;BME280;53694;49.784;30.150;2022-08-11T00:10:38;99877.09;;;19.90;71.35
61474;BME280;53694;49.784;30.150;2022-08-11T00:11:46;99881.37;;;20.25;70.34
61474;BME280;53694;49.784;30.150;2022-08-11T00:13:00;99888.12;;;20.55;69.35
61474;BME280;53694;49.784;30.150;2022-08-11T00:14:04;99900.83;;;20.83;68.42
61474;BME280;53694;49.784;30.150;2022-08-11T00:15:08;99905.48;;;21.13;67.39
61474;BME280;53694;49.784;30.150;2022-08-11T00:16:22;99910.73;;;21.31;66.43
61474;BME280;53694;49.784;30.150;2022-08-11T00:17:31;99913.12;;;21.32;65.98
61474;BME280;53694;49.784;30.150;2022-08-11T00:18:41;99923.02;;;21.13;66.38
61474;BME280;53694;49.784;30.150;2022-08-11T00:19:46;99925.02;;;20.89;67.48
61474;BME280;53694;49.784;30.150;2022-08-11T00:20:49;99926.34;;;20.58;67.34
61474;BME280;53694;49.784;30.150;2022-08-11T00:21:53;99927.55;;;20.26;68.48
61474;BME280;53694;49.784;30.150;2022-08-11T00:23:11;99927.58;;;19.95;69.98
61474;BME280;53694;49.784;30.150;2022-08-11T00:24:13;99930.73;;;19.67;70.85
61474;BME280;53694;49.784;30.150;2022-08-11T00:25:18;99934.19;;;19.37;71.82
61474;BME280;53694;49.784;30.150;2022-08-11T00:26:23;99940.79;;;19.16;72.46
61474;BME280;53694;49.784;30.150;2022-08-11T00:27:37;99930.52;;;19.06;73.42
61474;BME280;53694;49.784;30.150;2022-08-11T00:28:39;99938.42;;;19.11;73.53
61474;BME280;53694;49.784;30.150;2022-08-11T00:29:53;99930.25;;;19.34;73.33
61474;BME280;53694;49.784;30.150;2022-08-11T00:30:59;99929.98;;;19.63;72.22
61474;BME280;53694;49.784;30.150;2022-08-11T00:32:03;99929.53;;;19.98;71.38
61474;BME280;53694;49.784;30.150;2022-08-11T00:33:06;99928.25;;;20.34;69.95
61474;BME280;53694;49.784;30.150;2022-08-11T00:34:10;99934.22;;;20.63;68.98
61474;BME280;53694;49.784;30.150;2022-08-11T00:35:14;99930.60;;;20.89;67.89
61474;BME280;53694;49.784;30.150;2022-08-11T00:36:19;99925.58;;;21.04;67.08
61474;BME280;53694;49.784;30.150;2022-08-11T00:37:23;99925.58;;;21.04;66.73
61474;BME280;53694;49.784;30.150;2022-08-11T00:38:28;99926.63;;;20.90;66.83
61474;BME280;53694;49.784;30.150;2022-08-11T00:39:33;99924.18;;;20.69;67.55
61474;BME280;53694;49.784;30.150;2022-08-11T00:40:41;99927.72;;;20.42;68.04
61474;BME280;53694;49.784;30.150;2022-08-11T00:43:17;99928.12;;;19.83;69.79
61474;BME280;53694;49.784;30.150;2022-08-11T00:44:35;99933.23;;;19.54;71.18
61474;BME280;53694;49.784;30.150;2022-08-11T00:45:41;99919.21;;;19.23;72.55
61474;BME280;53694;49.784;30.150;2022-08-11T00:46:56;99926.62;;;19.00;73.81
61474;BME280;53694;49.784;30.150;2022-08-11T00:48:27;99927.48;;;18.89;74.52
61474;BME280;53694;49.784;30.150;2022-08-11T00:49:42;99926.22;;;18.97;74.79
61474;BME280;53694;49.784;30.150;2022-08-11T00:51:09;99918.36;;;19.30;74.23
61474;BME280;53694;49.784;30.150;2022-08-11T00:52:28;99908.45;;;19.67;72.68
61474;BME280;53694;49.784;30.150;2022-08-11T00:58:27;99931.33;;;21.40;66.69
61474;BME280;53694;49.784;30.150;2022-08-11T01:01:16;99926.46;;;21.44;65.95
61474;BME280;53694;49.784;30.150;2022-08-11T01:02:25;99923.81;;;21.14;66.37
61474;BME280;53694;49.784;30.150;2022-08-11T01:03:39;99919.69;;;20.75;67.36
61474;BME280;53694;49.784;30.150;2022-08-11T01:04:47;99917.44;;;20.09;69.45
61474;BME280;53694;49.784;30.150;2022-08-11T01:09:58;99919.33;;;19.13;73.04
61474;BME280;53694;49.784;30.150;2022-08-11T01:12:31;99920.97;;;19.07;73.97
61474;BME280;53694;49.784;30.150;2022-08-11T01:19:33;99917.63;;;20.79;69.28
61474;BME280;53694;49.784;30.150;2022-08-11T01:22:58;99921.40;;;21.59;65.51
61474;BME280;53694;49.784;30.150;2022-08-11T01:37:20;99901.03;;;19.49;73.39
61474;BME280;53694;49.784;30.150;2022-08-11T01:38:44;99896.17;;;19.91;71.74
61474;BME280;53694;49.784;30.150;2022-08-11T01:40:03;99892.12;;;20.27;70.43
61474;BME280;53694;49.784;30.150;2022-08-11T01:46:27;99888.35;;;21.34;65.50
61474;BME280;53694;49.784;30.150;2022-08-11T01:54:08;99893.00;;;19.21;72.34
61474;BME280;53694;49.784;30.150;2022-08-11T01:57:08;99891.76;;;18.84;74.45
61474;BME280;53694;49.784;30.150;2022-08-11T01:58:28;99885.66;;;19.00;74.67
61474;BME280;53694;49.784;30.150;2022-08-11T01:59:36;99884.95;;;19.30;73.78
61474;BME280;53694;49.784;30.150;2022-08-11T02:00:49;99889.30;;;19.69;72.50
61474;BME280;53694;49.784;30.150;2022-08-11T02:03:22;99886.31;;;20.41;70.02
61474;BME280;53694;49.784;30.150;2022-08-11T02:04:35;99885.70;;;20.80;68.33
61474;BME280;53694;49.784;30.150;2022-08-11T02:07:48;99887.06;;;21.39;66.06
61474;BME280;53694;49.784;30.150;2022-08-11T02:09:12;99885.70;;;21.47;65.42
61474;BME280;53694;49.784;30.150;2022-08-11T02:10:38;99890.90;;;21.25;65.22
61474;BME280;53694;49.784;30.150;2022-08-11T02:11:37;99888.50;;;20.80;66.32
61474;BME280;53694;49.784;30.150;2022-08-11T02:12:53;99887.53;;;20.40;67.72
61474;BME280;53694;49.784;30.150;2022-08-11T02:14:26;99895.14;;;20.09;68.82
61474;BME280;53694;49.784;30.150;2022-08-11T02:15:37;99888.47;;;19.72;70.32
61474;BME280;53694;49.784;30.150;2022-08-11T02:18:33;99890.77;;;19.05;73.12
61474;BME280;53694;49.784;30.150;2022-08-11T02:21:06;99899.84;;;19.13;74.38
61474;BME280;53694;49.784;30.150;2022-08-11T02:24:56;99892.73;;;20.11;70.62
61474;BME280;53694;49.784;30.150;2022-08-11T02:27:22;99900.98;;;20.72;68.20
61474;BME280;53694;49.784;30.150;2022-08-11T02:30:07;99903.19;;;21.08;66.88
61474;BME280;53694;49.784;30.150;2022-08-11T02:31:16;99889.45;;;20.93;66.90
61474;BME280;53694;49.784;30.150;2022-08-11T02:32:49;99893.41;;;20.72;67.30
61474;BME280;53694;49.784;30.150;2022-08-11T02:33:37;99896.20;;;20.45;67.92
61474;BME280;53694;49.784;30.150;2022-08-11T02:37:17;99898.24;;;19.49;71.33
61474;BME280;53694;49.784;30.150;2022-08-11T02:38:21;99898.15;;;19.22;72.47
61474;BME280;53694;49.784;30.150;2022-08-11T02:39:24;99888.34;;;19.07;73.48
61474;BME280;53694;49.784;30.150;2022-08-11T02:40:46;99885.53;;;19.11;73.73
61474;BME280;53694;49.784;30.150;2022-08-11T02:42:07;99896.91;;;19.27;73.98
61474;BME280;53694;49.784;30.150;2022-08-11T02:43:40;99891.03;;;19.56;72.99
61474;BME280;53694;49.784;30.150;2022-08-11T02:44:56;99891.38;;;19.92;72.02
61474;BME280;53694;49.784;30.150;2022-08-11T02:46:18;99885.27;;;20.31;70.35
61474;BME280;53694;49.784;30.150;2022-08-11T02:50:01;99883.02;;;21.20;66.97
61474;BME280;53694;49.784;30.150;2022-08-11T02:52:47;99883.48;;;21.15;66.28
61474;BME280;53694;49.784;30.150;2022-08-11T02:58:19;99857.83;;;19.72;70.63
61474;BME280;53694;49.784;30.150;2022-08-11T02:59:26;99859.81;;;19.37;71.90
61474;BME280;53694;49.784;30.150;2022-08-11T03:00:31;99867.72;;;19.05;73.64
61474;BME280;53694;49.784;30.150;2022-08-11T03:01:46;99865.08;;;18.90;74.38
61474;BME280;53694;49.784;30.150;2022-08-11T03:03:00;99854.31;;;18.92;74.67
61474;BME280;53694;49.784;30.150;2022-08-11T03:04:06;99855.30;;;19.13;74.75
61474;BME280;53694;49.784;30.150;2022-08-11T03:09:13;99855.58;;;20.44;70.33
61474;BME280;53694;49.784;30.150;2022-08-11T03:11:55;99859.48;;;20.97;67.58
61474;BME280;53694;49.784;30.150;2022-08-11T03:13:03;99858.23;;;21.22;66.57
61474;BME280;53694;49.784;30.150;2022-08-11T03:14:16;99859.27;;;21.32;66.25
61474;BME280;53694;49.784;30.150;2022-08-11T03:15:24;99864.19;;;21.24;66.27
61474;BME280;53694;49.784;30.150;2022-08-11T03:17:48;99865.64;;;20.65;67.52
61474;BME280;53694;49.784;30.150;2022-08-11T03:18:55;99872.06;;;20.35;68.43
61474;BME280;53694;49.784;30.150;2022-08-11T03:20:08;99876.09;;;20.04;69.50
61474;BME280;53694;49.784;30.150;2022-08-11T03:21:31;99867.76;;;19.73;70.52
61474;BME280;53694;49.784;30.150;2022-08-11T03:25:07;99867.33;;;19.03;73.66
61474;BME280;53694;49.784;30.150;2022-08-11T03:27:45;99866.20;;;19.34;73.84
61474;BME280;53694;49.784;30.150;2022-08-11T03:30:17;99869.65;;;20.10;71.25
61474;BME280;53694;49.784;30.150;2022-08-11T03:32:33;99868.23;;;21.00;68.15
61474;BME280;53694;49.784;30.150;2022-08-11T03:33:43;99875.61;;;21.33;66.92
61474;BME280;53694;49.784;30.150;2022-08-11T03:34:47;99869.09;;;21.60;66.07
61474;BME280;53694;49.784;30.150;2022-08-11T03:36:50;99873.17;;;21.75;64.95
61474;BME280;53694;49.784;30.150;2022-08-11T03:41:36;99863.98;;;20.68;67.28
61474;BME280;53694;49.784;30.150;2022-08-11T03:44:17;99863.94;;;19.90;70.01
61474;BME280;53694;49.784;30.150;2022-08-11T03:45:27;99852.77;;;19.60;71.25
61474;BME280;53694;49.784;30.150;2022-08-11T04:01:06;99834.73;;;21.00;65.74
61474;BME280;53694;49.784;30.150;2022-08-11T04:08:46;99835.27;;;18.91;73.47
61474;BME280;53694;49.784;30.150;2022-08-11T04:11:15;99847.99;;;18.88;74.79
61474;BME280;53694;49.784;30.150;2022-08-11T04:16:40;99845.36;;;20.34;70.35
61474;BME280;53694;49.784;30.150;2022-08-11T04:20:39;99849.00;;;21.25;66.84
61474;BME280;53694;49.784;30.150;2022-08-11T04:23:24;99845.30;;;21.32;65.78
61474;BME280;53694;49.784;30.150;2022-08-11T04:24:52;99846.68;;;21.00;66.27
61474;BME280;53694;49.784;30.150;2022-08-11T04:30:05;99846.25;;;19.39;71.79
61474;BME280;53694;49.784;30.150;2022-08-11T04:50:26;99827.73;;;21.11;66.12
61474;BME280;53694;49.784;30.150;2022-08-11T04:53:12;99835.33;;;20.13;69.44
61474;BME280;53694;49.784;30.150;2022-08-11T04:54:22;99830.79;;;19.69;71.10
61474;BME280;53694;49.784;30.150;2022-08-11T04:57:02;99834.25;;;19.12;74.02
61474;BME280;53694;49.784;30.150;2022-08-11T04:59:35;99835.43;;;19.11;75.14
61474;BME280;53694;49.784;30.150;2022-08-11T05:00:41;99841.97;;;19.31;74.60
61474;BME280;53694;49.784;30.150;2022-08-11T05:02:01;99840.72;;;19.70;73.55
61474;BME280;53694;49.784;30.150;2022-08-11T05:03:10;99834.72;;;20.02;72.82
61474;BME280;53694;49.784;30.150;2022-08-11T05:12:40;99843.52;;;21.98;64.63
61474;BME280;53694;49.784;30.150;2022-08-11T05:13:50;99842.13;;;21.69;65.20
61474;BME280;53694;49.784;30.150;2022-08-11T05:14:52;99833.27;;;21.35;66.27
61474;BME280;53694;49.784;30.150;2022-08-11T05:15:57;99839.09;;;21.01;67.66
61474;BME280;53694;49.784;30.150;2022-08-11T05:17:16;99839.97;;;20.74;68.54
61474;BME280;53694;49.784;30.150;2022-08-11T05:18:21;99834.03;;;20.49;69.63
61474;BME280;53694;49.784;30.150;2022-08-11T05:19:24;99839.19;;;20.23;70.78
61474;BME280;53694;49.784;30.150;2022-08-11T05:20:27;99837.07;;;20.04;71.37
61474;BME280;53694;49.784;30.150;2022-08-11T05:21:31;99843.69;;;19.86;72.19
61474;BME280;53694;49.784;30.150;2022-08-11T05:22:34;99843.42;;;19.77;73.09
61474;BME280;53694;49.784;30.150;2022-08-11T05:23:39;99842.95;;;19.82;73.18
61474;BME280;53694;49.784;30.150;2022-08-11T05:24:44;99847.08;;;20.01;72.97
61474;BME280;53694;49.784;30.150;2022-08-11T05:25:47;99847.42;;;20.30;72.50
61474;BME280;53694;49.784;30.150;2022-08-11T05:26:51;99850.22;;;20.57;71.24
61474;BME280;53694;49.784;30.150;2022-08-11T05:28:02;99865.33;;;20.83;70.49
61474;BME280;53694;49.784;30.150;2022-08-11T05:29:04;99859.30;;;21.08;69.12
61474;BME280;53694;49.784;30.150;2022-08-11T05:30:09;99861.98;;;21.35;68.32
61474;BME280;53694;49.784;30.150;2022-08-11T05:31:13;99860.70;;;21.60;67.62
61474;BME280;53694;49.784;30.150;2022-08-11T05:32:16;99869.22;;;21.73;66.54
61474;BME280;53694;49.784;30.150;2022-08-11T05:33:24;99864.48;;;21.69;66.43
61474;BME280;53694;49.784;30.150;2022-08-11T05:34:32;99870.31;;;21.59;66.58
61474;BME280;53694;49.784;30.150;2022-08-11T05:35:43;99883.48;;;21.38;67.21
61474;BME280;53694;49.784;30.150;2022-08-11T05:36:54;99890.30;;;21.14;67.93
61474;BME280;53694;49.784;30.150;2022-08-11T05:37:54;99897.98;;;20.86;69.11
61474;BME280;53694;49.784;30.150;2022-08-11T05:39:03;99906.76;;;20.61;70.17
61474;BME280;53694;49.784;30.150;2022-08-11T05:40:08;99911.11;;;20.35;71.09
61474;BME280;53694;49.784;30.150;2022-08-11T05:41:11;99917.35;;;20.16;72.13
61474;BME280;53694;49.784;30.150;2022-08-11T05:42:15;99915.87;;;20.08;72.96
61474;BME280;53694;49.784;30.150;2022-08-11T05:43:17;99906.20;;;20.16;73.00
61474;BME280;53694;49.784;30.150;2022-08-11T05:44:20;99908.67;;;20.37;72.74
61474;BME280;53694;49.784;30.150;2022-08-11T05:45:21;99910.69;;;20.64;72.29
61474;BME280;53694;49.784;30.150;2022-08-11T05:46:26;99914.23;;;20.91;70.96
61474;BME280;53694;49.784;30.150;2022-08-11T05:47:28;99908.16;;;21.20;69.74
61474;BME280;53694;49.784;30.150;2022-08-11T05:48:35;99902.47;;;21.47;69.05
61474;BME280;53694;49.784;30.150;2022-08-11T05:49:37;99894.00;;;21.70;68.32
61474;BME280;53694;49.784;30.150;2022-08-11T05:50:40;99898.09;;;21.86;67.40
61474;BME280;53694;49.784;30.150;2022-08-11T05:51:43;99896.94;;;21.83;67.01
61474;BME280;53694;49.784;30.150;2022-08-11T05:52:46;99899.52;;;21.74;67.36
61474;BME280;53694;49.784;30.150;2022-08-11T05:53:54;99890.38;;;21.54;67.67
61474;BME280;53694;49.784;30.150;2022-08-11T05:55:01;99891.59;;;21.33;68.62
61474;BME280;53694;49.784;30.150;2022-08-11T05:56:05;99891.29;;;21.04;69.04
61474;BME280;53694;49.784;30.150;2022-08-11T05:57:07;99887.81;;;20.72;70.08
61474;BME280;53694;49.784;30.150;2022-08-11T05:58:11;99885.81;;;20.50;70.86
61474;BME280;53694;49.784;30.150;2022-08-11T05:59:16;99879.75;;;20.28;71.80
61474;BME280;53694;49.784;30.150;2022-08-11T06:00:20;99871.91;;;20.19;72.60
61474;BME280;53694;49.784;30.150;2022-08-11T06:01:30;99862.28;;;20.23;72.97
61474;BME280;53694;49.784;30.150;2022-08-11T06:02:42;99859.64;;;20.40;72.21
61474;BME280;53694;49.784;30.150;2022-08-11T06:03:45;99848.84;;;20.69;71.79
61474;BME280;53694;49.784;30.150;2022-08-11T06:04:56;99841.44;;;21.02;70.31
61474;BME280;53694;49.784;30.150;2022-08-11T06:05:59;99831.70;;;21.34;69.17
61474;BME280;53694;49.784;30.150;2022-08-11T06:07:03;99834.70;;;21.63;68.03
61474;BME280;53694;49.784;30.150;2022-08-11T06:08:07;99825.77;;;21.88;66.91
61474;BME280;53694;49.784;30.150;2022-08-11T06:09:09;99833.37;;;22.04;65.75
61474;BME280;53694;49.784;30.150;2022-08-11T06:10:12;99827.38;;;22.05;66.02
61474;BME280;53694;49.784;30.150;2022-08-11T06:11:15;99820.00;;;21.95;66.34
61474;BME280;53694;49.784;30.150;2022-08-11T06:12:25;99818.31;;;21.81;66.77
61474;BME280;53694;49.784;30.150;2022-08-11T06:13:29;99810.03;;;21.58;66.94
61474;BME280;53694;49.784;30.150;2022-08-11T06:14:32;99818.14;;;21.32;67.74
61474;BME280;53694;49.784;30.150;2022-08-11T06:15:47;99800.22;;;21.10;68.69
61474;BME280;53694;49.784;30.150;2022-08-11T06:16:50;99811.67;;;20.95;69.41
61474;BME280;53694;49.784;30.150;2022-08-11T06:17:54;99814.80;;;20.78;69.93
61474;BME280;53694;49.784;30.150;2022-08-11T06:18:57;99814.62;;;20.65;70.81
61474;BME280;53694;49.784;30.150;2022-08-11T06:20:07;99832.48;;;20.44;72.32
61474;BME280;53694;49.784;30.150;2022-08-11T06:21:10;99832.48;;;20.44;72.32
61474;BME280;53694;49.784;30.150;2022-08-11T06:22:12;99841.63;;;20.44;73.12
61474;BME280;53694;49.784;30.150;2022-08-11T06:23:17;99859.38;;;20.58;72.54
61474;BME280;53694;49.784;30.150;2022-08-11T06:24:19;99851.42;;;20.80;71.29
61474;BME280;53694;49.784;30.150;2022-08-11T06:25:22;99855.72;;;21.08;70.54
61474;BME280;53694;49.784;30.150;2022-08-11T06:26:27;99855.17;;;21.36;69.69
61474;BME280;53694;49.784;30.150;2022-08-11T06:27:30;99854.88;;;21.70;68.80
61474;BME280;53694;49.784;30.150;2022-08-11T06:28:35;99851.20;;;21.93;66.76
61474;BME280;53694;49.784;30.150;2022-08-11T06:29:45;99861.98;;;22.11;66.64
61474;BME280;53694;49.784;30.150;2022-08-11T06:30:44;99859.62;;;22.10;66.04
61474;BME280;53694;49.784;30.150;2022-08-11T06:32:00;99851.91;;;21.98;66.06
61474;BME280;53694;49.784;30.150;2022-08-11T06:33:03;99857.11;;;21.79;66.51
61474;BME280;53694;49.784;30.150;2022-08-11T06:43:00;99826.27;;;20.33;73.14
61474;BME280;53694;49.784;30.150;2022-08-11T06:45:31;99811.91;;;20.81;70.78
61474;BME280;53694;49.784;30.150;2022-08-11T06:46:34;99808.02;;;21.18;69.54
61474;BME280;53694;49.784;30.150;2022-08-11T06:47:41;99804.10;;;21.56;68.68
61474;BME280;53694;49.784;30.150;2022-08-11T06:48:42;99809.41;;;21.86;67.28
61474;BME280;53694;49.784;30.150;2022-08-11T06:49:48;99814.95;;;22.06;66.58
61474;BME280;53694;49.784;30.150;2022-08-11T06:50:55;99822.41;;;22.13;65.99
61474;BME280;53694;49.784;30.150;2022-08-11T06:51:59;99823.42;;;22.03;66.27
61474;BME280;53694;49.784;30.150;2022-08-11T06:53:07;99825.41;;;21.86;66.46
61474;BME280;53694;49.784;30.150;2022-08-11T06:54:17;99840.29;;;21.63;67.15
61474;BME280;53694;49.784;30.150;2022-08-11T06:55:22;99850.31;;;21.40;68.04
61474;BME280;53694;49.784;30.150;2022-08-11T06:56:30;99849.13;;;21.18;68.81
61474;BME280;53694;49.784;30.150;2022-08-11T06:57:34;99854.39;;;20.92;69.95
61474;BME280;53694;49.784;30.150;2022-08-11T06:58:39;99852.76;;;20.71;70.94
61474;BME280;53694;49.784;30.150;2022-08-11T06:59:54;99850.63;;;20.56;71.31
61474;BME280;53694;49.784;30.150;2022-08-11T07:01:10;99849.27;;;20.40;72.12
61474;BME280;53694;49.784;30.150;2022-08-11T07:02:30;99843.02;;;20.33;73.59
61474;BME280;53694;49.784;30.150;2022-08-11T07:03:47;99829.25;;;20.45;73.92
61474;BME280;53694;49.784;30.150;2022-08-11T07:09:17;99830.02;;;21.76;70.27
61474;BME280;53694;49.784;30.150;2022-08-11T07:12:02;99842.18;;;22.38;67.50
61474;BME280;53694;49.784;30.150;2022-08-11T07:13:03;99854.24;;;22.68;66.67
61474;BME280;53694;49.784;30.150;2022-08-11T07:14:06;99867.20;;;22.78;66.01
61474;BME280;53694;49.784;30.150;2022-08-11T07:15:09;99872.72;;;22.65;65.76
61474;BME280;53694;49.784;30.150;2022-08-11T07:16:15;99875.75;;;22.38;66.26
61474;BME280;53694;49.784;30.150;2022-08-11T07:17:22;99894.91;;;22.04;67.55
61474;BME280;53694;49.784;30.150;2022-08-11T07:18:33;99893.38;;;21.63;68.79
61474;BME280;53694;49.784;30.150;2022-08-11T07:19:36;99909.28;;;21.22;69.89
61474;BME280;53694;49.784;30.150;2022-08-11T07:20:41;99919.58;;;20.82;71.50
61474;BME280;53694;49.784;30.150;2022-08-11T07:21:45;99930.45;;;20.50;73.17
61474;BME280;53694;49.784;30.150;2022-08-11T07:23:00;99928.41;;;20.23;74.73
61474;BME280;53694;49.784;30.150;2022-08-11T07:23:55;99932.59;;;20.08;75.78
61474;BME280;53694;49.784;30.150;2022-08-11T07:25:04;99928.59;;;20.09;76.65
61474;BME280;53694;49.784;30.150;2022-08-11T07:26:06;99937.14;;;20.25;75.98
61474;BME280;53694;49.784;30.150;2022-08-11T07:27:18;99937.59;;;20.51;75.20
61474;BME280;53694;49.784;30.150;2022-08-11T07:28:22;99930.06;;;20.75;74.12
61474;BME280;53694;49.784;30.150;2022-08-11T07:29:21;99931.16;;;21.04;73.04
61474;BME280;53694;49.784;30.150;2022-08-11T07:30:25;99919.42;;;21.36;71.84
61474;BME280;53694;49.784;30.150;2022-08-11T07:31:40;99911.72;;;21.64;70.91
61474;BME280;53694;49.784;30.150;2022-08-11T07:32:50;99901.59;;;21.90;69.96
61474;BME280;53694;49.784;30.150;2022-08-11T07:33:52;99889.83;;;22.18;68.83
61474;BME280;53694;49.784;30.150;2022-08-11T07:34:58;99883.66;;;22.43;67.39
61474;BME280;53694;49.784;30.150;2022-08-11T07:36:02;99877.00;;;22.54;66.80
61474;BME280;53694;49.784;30.150;2022-08-11T07:37:10;99871.93;;;22.49;66.94
61474;BME280;53694;49.784;30.150;2022-08-11T07:38:21;99864.39;;;22.29;67.50
61474;BME280;53694;49.784;30.150;2022-08-11T07:39:29;99862.94;;;22.05;68.12
61474;BME280;53694;49.784;30.150;2022-08-11T07:41:36;99843.16;;;21.39;69.93
61474;BME280;53694;49.784;30.150;2022-08-11T07:42:39;99839.03;;;21.04;71.00
61474;BME280;53694;49.784;30.150;2022-08-11T07:43:42;99847.61;;;20.70;72.72
61474;BME280;53694;49.784;30.150;2022-08-11T07:44:45;99844.42;;;20.44;74.21
61474;BME280;53694;49.784;30.150;2022-08-11T07:45:47;99851.08;;;20.27;75.34
61474;BME280;53694;49.784;30.150;2022-08-11T07:46:50;99845.50;;;20.27;75.92
61474;BME280;53694;49.784;30.150;2022-08-11T07:47:53;99842.58;;;20.34;75.64
61474;BME280;53694;49.784;30.150;2022-08-11T07:48:56;99855.48;;;20.52;75.66
61474;BME280;53694;49.784;30.150;2022-08-11T07:49:59;99863.52;;;20.73;75.13
61474;BME280;53694;49.784;30.150;2022-08-11T07:51:01;99866.66;;;20.99;74.05
61474;BME280;53694;49.784;30.150;2022-08-11T07:52:07;99872.57;;;21.24;73.02
61474;BME280;53694;49.784;30.150;2022-08-11T07:53:10;99873.03;;;21.42;72.04
61474;BME280;53694;49.784;30.150;2022-08-11T07:54:13;99873.83;;;21.63;71.64
61474;BME280;53694;49.784;30.150;2022-08-11T07:55:16;99876.95;;;21.85;71.09
61474;BME280;53694;49.784;30.150;2022-08-11T07:56:18;99872.01;;;22.09;70.45
61474;BME280;53694;49.784;30.150;2022-08-11T07:57:21;99870.34;;;22.31;69.90
61474;BME280;53694;49.784;30.150;2022-08-11T07:58:24;99880.84;;;22.60;68.30
61474;BME280;53694;49.784;30.150;2022-08-11T07:59:27;99881.89;;;22.82;67.59
61474;BME280;53694;49.784;30.150;2022-08-11T08:00:39;99885.22;;;22.93;66.53
61474;BME280;53694;49.784;30.150;2022-08-11T08:01:41;99881.36;;;22.87;66.93
61474;BME280;53694;49.784;30.150;2022-08-11T08:02:43;99885.40;;;22.70;67.64
61474;BME280;53694;49.784;30.150;2022-08-11T08:03:46;99889.95;;;22.48;68.62
61474;BME280;53694;49.784;30.150;2022-08-11T08:04:48;99886.58;;;22.20;69.10
61474;BME280;53694;49.784;30.150;2022-08-11T08:05:51;99895.94;;;21.93;70.41
61474;BME280;53694;49.784;30.150;2022-08-11T08:06:54;99889.30;;;21.67;71.46
61474;BME280;53694;49.784;30.150;2022-08-11T08:07:56;99888.95;;;21.45;72.57
61474;BME280;53694;49.784;30.150;2022-08-11T08:08:58;99895.63;;;21.28;73.13
61474;BME280;53694;49.784;30.150;2022-08-11T08:10:01;99888.95;;;21.22;72.45
61474;BME280;53694;49.784;30.150;2022-08-11T08:11:03;99897.70;;;21.24;73.70
61474;BME280;53694;49.784;30.150;2022-08-11T08:12:05;99904.27;;;21.37;73.57
61474;BME280;53694;49.784;30.150;2022-08-11T08:13:08;99900.68;;;21.57;73.14
61474;BME280;53694;49.784;30.150;2022-08-11T08:14:10;99897.10;;;21.76;71.42
61474;BME280;53694;49.784;30.150;2022-08-11T08:15:14;99907.13;;;21.93;71.02
61474;BME280;53694;49.784;30.150;2022-08-11T08:16:16;99910.70;;;22.14;70.45
61474;BME280;53694;49.784;30.150;2022-08-11T08:17:20;99912.31;;;22.31;69.72
61474;BME280;53694;49.784;30.150;2022-08-11T08:18:23;99917.13;;;22.47;69.21
61474;BME280;53694;49.784;30.150;2022-08-11T08:19:26;99916.80;;;22.61;68.12
61474;BME280;53694;49.784;30.150;2022-08-11T08:20:37;99920.72;;;22.64;67.17
61474;BME280;53694;49.784;30.150;2022-08-11T08:21:40;99919.42;;;22.52;67.62
61474;BME280;53694;49.784;30.150;2022-08-11T08:22:43;99916.91;;;22.21;68.15
61474;BME280;53694;49.784;30.150;2022-08-11T08:23:45;99918.81;;;21.88;69.17
61474;BME280;53694;49.784;30.150;2022-08-11T08:24:48;99907.15;;;21.54;70.84
61474;BME280;53694;49.784;30.150;2022-08-11T08:25:51;99909.66;;;21.25;72.10
61474;BME280;53694;49.784;30.150;2022-08-11T08:26:53;99918.42;;;21.03;73.19
61474;BME280;53694;49.784;30.150;2022-08-11T08:27:57;99913.80;;;20.93;74.13
61474;BME280;53694;49.784;30.150;2022-08-11T08:29:02;99906.09;;;21.01;74.21
61474;BME280;53694;49.784;30.150;2022-08-11T08:30:06;99907.72;;;21.21;73.91
61474;BME280;53694;49.784;30.150;2022-08-11T08:31:08;99904.83;;;21.49;72.43
61474;BME280;53694;49.784;30.150;2022-08-11T08:32:10;99903.55;;;21.73;71.05
61474;BME280;53694;49.784;30.150;2022-08-11T08:34:24;99902.84;;;22.25;69.62
61474;BME280;53694;49.784;30.150;2022-08-11T08:35:26;99904.13;;;22.57;68.63
61474;BME280;53694;49.784;30.150;2022-08-11T08:36:29;99897.91;;;22.82;67.37
61474;BME280;53694;49.784;30.150;2022-08-11T08:37:31;99905.52;;;22.98;67.10
61474;BME280;53694;49.784;30.150;2022-08-11T08:38:33;99887.84;;;23.01;66.65
61474;BME280;53694;49.784;30.150;2022-08-11T08:39:35;99887.69;;;22.91;66.49
61474;BME280;53694;49.784;30.150;2022-08-11T08:40:42;99889.59;;;22.78;66.87
61474;BME280;53694;49.784;30.150;2022-08-11T08:41:44;99883.63;;;22.60;66.74
61474;BME280;53694;49.784;30.150;2022-08-11T08:43:01;99875.75;;;22.38;67.29
61474;BME280;53694;49.784;30.150;2022-08-11T08:44:07;99879.42;;;22.19;68.42
61474;BME280;53694;49.784;30.150;2022-08-11T08:45:11;99886.25;;;21.98;68.99
61474;BME280;53694;49.784;30.150;2022-08-11T08:46:18;99880.16;;;21.83;70.13
61474;BME280;53694;49.784;30.150;2022-08-11T08:47:22;99883.27;;;21.69;70.79
61474;BME280;53694;49.784;30.150;2022-08-11T08:48:27;99879.11;;;21.57;71.46